Time;durP1;ratioP1;P1;durP2;ratioP2;P2;SDS_P1;SDS_P2;PMS_P1;PMS_P2;Temp;Humidity;BMP_temperature;BMP_pressure;BME280_temperature;BME280_humidity;BME280_pressure;Samples;Min_cycle;Max_cycle;Signal;HPM_P1;HPM_P2
2023/12/20 00:01:57;;;;;;;91.30;46.92;;;;;;;23.25;100.00;56616.03;5078551;28;20271;-73
2023/12/20 00:04:23;;;;;;;93.05;46.10;;;;;;;23.25;100.00;56616.03;5078653;28;20280;-73
2023/12/20 00:06:50;;;;;;;98.20;46.03;;;;;;;23.25;100.00;56616.03;5080120;28;20285;-73
2023/12/20 00:09:17;;;;;;;82.20;43.35;;;;;;;23.27;100.00;56616.03;5077971;28;20288;-73
2023/12/20 00:11:44;;;;;;;75.57;42.50;;;;;;;23.27;100.00;56616.03;5080149;28;20755;-73
2023/12/20 00:14:12;;;;;;;87.22;43.95;;;;;;;-142.91;100.00;56616.03;5075754;28;20281;-74
2023/12/20 00:16:39;;;;;;;80.80;42.35;;;;;;;-142.91;100.00;56616.03;5078239;28;20198;-74
2023/12/20 00:19:05;;;;;;;90.45;42.33;;;;;;;23.25;100.00;56616.03;5077375;28;20679;-73
2023/12/20 00:21:32;;;;;;;85.53;44.08;;;;;;;23.25;100.00;56616.03;5081576;28;20695;-73
2023/12/20 00:23:59;;;;;;;85.80;42.90;;;;;;;23.25;100.00;56616.03;5079909;28;20286;-73
2023/12/20 00:26:25;;;;;;;82.57;39.78;;;;;;;23.25;100.00;56616.03;5078345;28;20650;-72
2023/12/20 00:28:52;;;;;;;80.90;39.50;;;;;;;23.29;100.00;56616.03;5074240;28;20293;-72
2023/12/20 00:31:20;;;;;;;75.68;41.40;;;;;;;23.26;100.00;56616.03;5071032;28;20206;-73
2023/12/20 00:33:47;;;;;;;76.30;37.40;;;;;;;23.26;100.00;56616.03;5075064;28;20270;-74
2023/12/20 00:36:13;;;;;;;86.30;41.40;;;;;;;23.25;100.00;56616.03;5066057;28;20660;-73
2023/12/20 00:38:40;;;;;;;77.13;39.67;;;;;;;23.25;100.00;56616.03;5079830;28;20572;-73
2023/12/20 00:41:07;;;;;;;83.00;40.88;;;;;;;23.25;100.00;56616.03;5078347;28;20252;-73
2023/12/20 00:43:33;;;;;;;76.32;40.38;;;;;;;23.26;100.00;56616.03;5078659;28;21020;-73
2023/12/20 00:46:00;;;;;;;78.88;39.50;;;;;;;23.26;100.00;56616.03;5068061;28;20783;-73
2023/12/20 00:48:30;;;;;;;87.03;43.25;;;;;;;23.27;100.00;56616.03;5079087;28;20206;-73
2023/12/20 00:50:56;;;;;;;79.60;40.47;;;;;;;23.27;100.00;56616.03;5074628;28;20684;-73
2023/12/20 00:53:23;;;;;;;84.90;40.72;;;;;;;23.25;100.00;56616.03;5073335;28;20330;-73
2023/12/20 00:55:50;;;;;;;80.05;40.92;;;;;;;23.41;100.00;56616.03;5078495;28;20785;-73
2023/12/20 00:58:17;;;;;;;75.53;37.47;;;;;;;;;;5077232;28;20197;-73
2023/12/20 01:00:44;;;;;;;76.20;37.88;;;;;;;23.41;100.00;56616.03;5078644;28;20209;-73
2023/12/20 01:03:10;;;;;;;71.28;36.72;;;;;;;23.25;100.00;56616.03;5077323;28;20225;-73
2023/12/20 01:05:38;;;;;;;75.93;36.45;;;;;;;23.29;100.00;56616.03;5081816;28;20236;-73
2023/12/20 01:08:06;;;;;;;78.70;38.53;;;;;;;23.26;100.00;56616.03;5079684;28;20356;-72
2023/12/20 01:10:32;;;;;;;76.38;38.75;;;;;;;23.29;100.00;56616.03;5081966;28;20284;-72
2023/12/20 01:12:59;;;;;;;93.63;38.17;;;;;;;23.29;100.00;56616.03;5081283;28;20503;-72
2023/12/20 01:15:25;;;;;;;74.93;38.42;;;;;;;23.26;100.00;56616.03;5080066;28;20655;-72
2023/12/20 01:17:52;;;;;;;67.03;36.03;;;;;;;23.29;100.00;56616.03;5074182;28;20285;-74
2023/12/20 01:20:20;;;;;;;66.70;36.17;;;;;;;23.29;100.00;56616.03;5072964;28;20292;-73
2023/12/20 01:22:48;;;;;;;81.00;38.28;;;;;;;23.26;100.00;56616.03;5076940;28;20232;-74
2023/12/20 01:25:14;;;;;;;68.55;37.38;;;;;;;23.25;100.00;56616.03;5079613;28;20489;-73
2023/12/20 01:27:41;;;;;;;77.43;37.75;;;;;;;23.25;100.00;56616.03;5082058;28;20288;-73
2023/12/20 01:30:08;;;;;;;66.35;35.17;;;;;;;-142.91;100.00;56616.03;5086187;28;20661;-71
2023/12/20 01:32:35;;;;;;;70.38;35.65;;;;;;;23.41;100.00;56616.03;5083791;28;20312;-72
2023/12/20 01:35:02;;;;;;;75.83;38.47;;;;;;;23.33;100.00;56616.03;5079876;28;20301;-73
2023/12/20 01:37:29;;;;;;;76.35;38.03;;;;;;;23.25;100.00;56616.03;5074346;28;20237;-74
2023/12/20 01:39:57;;;;;;;69.10;36.83;;;;;;;23.26;100.00;56616.03;5077931;28;20206;-73
2023/12/20 01:42:23;;;;;;;73.47;38.92;;;;;;;23.27;100.00;56616.03;5081880;28;20317;-73
2023/12/20 01:44:50;;;;;;;95.72;42.45;;;;;;;;;;5079659;28;20290;-73
2023/12/20 01:47:17;;;;;;;78.47;36.65;;;;;;;23.26;100.00;56616.03;5075493;28;20297;-72
2023/12/20 01:49:44;;;;;;;65.47;35.10;;;;;;;23.25;100.00;56616.03;5080629;28;20236;-72
2023/12/20 01:52:11;;;;;;;69.55;35.65;;;;;;;23.26;100.00;56616.03;5086132;28;20278;-73
2023/12/20 01:54:39;;;;;;;73.70;36.17;;;;;;;23.29;100.00;56616.03;5081588;28;20229;-73
2023/12/20 01:57:08;;;;;;;69.68;37.10;;;;;;;23.33;100.00;56616.03;5084423;28;20663;-75
2023/12/20 01:59:35;;;;;;;74.85;35.90;;;;;;;23.26;100.00;56616.03;5086500;28;20289;-73
2023/12/20 02:02:04;;;;;;;67.25;34.08;;;;;;;23.29;100.00;56616.03;5085412;28;20198;-74
2023/12/20 02:04:31;;;;;;;63.20;33.28;;;;;;;23.25;100.00;56616.03;5082957;28;20265;-74
2023/12/20 02:06:59;;;;;;;71.85;33.47;;;;;;;23.27;100.00;56616.03;5087077;28;20228;-74
2023/12/20 02:09:26;;;;;;;63.20;33.50;;;;;;;-142.91;100.00;56616.03;5071967;28;20261;-74
2023/12/20 02:11:53;;;;;;;80.22;35.20;;;;;;;-142.91;100.00;56616.03;5063513;28;20197;-74
2023/12/20 02:14:22;;;;;;;68.32;35.67;;;;;;;-142.91;100.00;56616.03;5062533;28;20280;-76
2023/12/20 02:16:49;;;;;;;101.07;43.22;;;;;;;-142.91;100.00;56616.03;5060150;28;20495;-77
2023/12/20 02:19:16;;;;;;;85.20;42.20;;;;;;;-142.91;100.00;56616.03;5060032;28;20300;-74
2023/12/20 02:21:46;;;;;;;118.82;38.65;;;;;;;-142.91;100.00;56616.03;5064047;28;20301;-74
2023/12/20 02:24:12;;;;;;;100.75;41.97;;;;;;;-142.91;100.00;56616.03;5080392;28;20298;-73
2023/12/20 02:26:39;;;;;;;97.40;40.30;;;;;;;23.25;100.00;56616.03;5083128;28;20289;-72
2023/12/20 02:29:06;;;;;;;95.95;39.35;;;;;;;23.26;100.00;56616.03;5079247;28;20251;-72
2023/12/20 02:31:32;;;;;;;89.88;40.10;;;;;;;23.25;100.00;56616.03;5079017;28;20312;-73
2023/12/20 02:33:59;;;;;;;92.78;38.60;;;;;;;23.26;100.00;56616.03;5082701;28;20312;-74
2023/12/20 02:36:26;;;;;;;96.85;37.38;;;;;;;-142.91;100.00;56616.03;5078652;28;20743;-74
2023/12/20 02:38:54;;;;;;;91.03;38.05;;;;;;;23.27;100.00;56616.03;5079044;28;20198;-75
2023/12/20 02:41:21;;;;;;;91.28;37.72;;;;;;;23.33;100.00;56616.03;5079434;28;20271;-74
2023/12/20 02:43:47;;;;;;;68.50;33.47;;;;;;;-142.91;100.00;56616.03;5077038;28;20233;-74
2023/12/20 02:46:16;;;;;;;83.38;36.25;;;;;;;23.25;100.00;56616.03;5076566;28;20759;-74
2023/12/20 02:48:43;;;;;;;71.38;32.20;;;;;;;23.25;100.00;56616.03;5078643;28;20336;-73
2023/12/20 02:51:10;;;;;;;78.70;30.58;;;;;;;23.25;100.00;56616.03;5078704;28;20205;-74
2023/12/20 02:53:36;;;;;;;60.00;30.48;;;;;;;-142.91;100.00;56616.03;5080514;28;20304;-73
2023/12/20 02:56:05;;;;;;;64.50;27.77;;;;;;;23.26;100.00;56616.03;5076352;28;20290;-73
2023/12/20 02:58:32;;;;;;;55.97;26.30;;;;;;;23.25;100.00;56616.03;5080664;28;20385;-73
2023/12/20 03:00:59;;;;;;;76.07;29.67;;;;;;;-142.91;100.00;56616.03;5081276;28;20282;-74
2023/12/20 03:03:27;;;;;;;78.22;27.77;;;;;;;;;;5073523;28;20212;-74
2023/12/20 03:05:54;;;;;;;60.85;28.02;;;;;;;23.26;100.00;56616.03;5079095;28;20573;-75
2023/12/20 03:08:20;;;;;;;55.40;26.95;;;;;;;-142.91;100.00;56616.03;5080096;28;20292;-74
2023/12/20 03:10:47;;;;;;;58.97;26.05;;;;;;;-142.91;100.00;56616.03;5078847;28;20661;-74
2023/12/20 03:13:16;;;;;;;61.88;24.85;;;;;;;23.26;100.00;56616.03;5081826;28;20693;-74
2023/12/20 03:15:43;;;;;;;105.20;27.25;;;;;;;-142.91;100.00;56616.03;5080306;28;20281;-75
2023/12/20 03:18:09;;;;;;;78.45;24.85;;;;;;;-142.91;100.00;56616.03;5080488;28;20658;-77
2023/12/20 03:20:36;;;;;;;58.25;27.48;;;;;;;23.25;100.00;56616.03;5070078;28;20212;-75
2023/12/20 03:23:03;;;;;;;105.72;31.23;;;;;;;23.25;100.00;56616.03;5083851;28;20233;-74
2023/12/20 03:25:29;;;;;;;76.55;29.80;;;;;;;23.25;100.00;56616.03;5081358;28;21466;-74
2023/12/20 03:27:56;;;;;;;70.93;27.70;;;;;;;23.25;100.00;56616.03;5082551;28;20248;-74
2023/12/20 03:30:24;;;;;;;60.38;28.92;;;;;;;;;;5080792;28;20946;-74
2023/12/20 03:32:50;;;;;;;83.50;28.52;;;;;;;-142.91;100.00;56616.03;5082922;28;20309;-74
2023/12/20 03:35:17;;;;;;;61.53;26.73;;;;;;;-142.91;100.00;56616.03;5079376;28;20203;-74
2023/12/20 03:37:44;;;;;;;61.75;26.67;;;;;;;23.26;100.00;56616.03;5081184;28;20289;-74
2023/12/20 03:40:11;;;;;;;57.03;26.30;;;;;;;23.26;100.00;56616.03;5080181;28;20205;-74
2023/12/20 03:42:38;;;;;;;58.33;25.75;;;;;;;23.41;100.00;56616.03;5081705;28;20328;-74
2023/12/20 03:45:05;;;;;;;69.70;26.85;;;;;;;23.29;100.00;56616.03;5080241;28;20236;-75
2023/12/20 03:47:33;;;;;;;84.63;32.20;;;;;;;23.26;100.00;56616.03;5080922;28;20296;-75
2023/12/20 03:50:00;;;;;;;62.03;27.95;;;;;;;23.41;100.00;56616.03;5081123;28;20710;-74
2023/12/20 03:52:26;;;;;;;53.35;25.85;;;;;;;23.27;100.00;56616.03;5064574;28;20202;-73
2023/12/20 03:54:53;;;;;;;45.17;25.15;;;;;;;-142.91;100.00;56616.03;5080207;28;20352;-74
2023/12/20 03:57:19;;;;;;;60.60;27.65;;;;;;;23.25;100.00;56616.03;5079654;28;20207;-74
2023/12/20 03:59:46;;;;;;;59.58;28.88;;;;;;;-142.91;100.00;56616.03;5080828;28;20284;-75
2023/12/20 04:02:13;;;;;;;69.20;28.10;;;;;;;23.29;100.00;56616.03;5087866;28;20206;-74
2023/12/20 04:04:42;;;;;;;82.95;30.95;;;;;;;-142.91;100.00;56616.03;5082628;28;20627;-75
2023/12/20 04:07:08;;;;;;;67.53;31.13;;;;;;;23.26;100.00;56616.03;5079664;28;20205;-75
2023/12/20 04:09:35;;;;;;;61.72;30.95;;;;;;;-142.91;100.00;56616.03;5083046;28;20388;-75
2023/12/20 04:12:01;;;;;;;71.88;30.00;;;;;;;;;;5083219;28;20299;-75
2023/12/20 04:14:28;;;;;;;57.60;27.63;;;;;;;23.29;100.00;56616.03;5080070;28;20320;-75
2023/12/20 04:16:55;;;;;;;61.90;29.77;;;;;;;-142.91;100.00;56616.03;5083076;28;20300;-75
2023/12/20 04:19:21;;;;;;;66.72;29.10;;;;;;;-142.91;100.00;56616.03;5083032;28;20292;-75
2023/12/20 04:21:49;;;;;;;68.95;31.27;;;;;;;23.57;100.00;56616.03;5083612;28;20248;-75
2023/12/20 04:27:01;;;;;;;66.78;29.75;;;;;;;-142.91;100.00;56616.03;5081625;28;20336;-75
2023/12/20 04:29:28;;;;;;;66.25;29.90;;;;;;;23.27;100.00;56616.03;5083319;28;20766;-74
2023/12/20 04:31:55;;;;;;;66.25;29.33;;;;;;;23.33;100.00;56616.03;5083254;28;20264;-74
2023/12/20 04:34:22;;;;;;;68.88;31.33;;;;;;;23.29;100.00;56616.03;5080802;28;20286;-75
2023/12/20 04:36:50;;;;;;;70.68;32.22;;;;;;;-142.91;100.00;56616.03;5080661;28;20221;-74
2023/12/20 04:39:16;;;;;;;73.60;29.40;;;;;;;23.33;100.00;56616.03;5083204;28;20289;-75
2023/12/20 04:41:43;;;;;;;84.80;32.95;;;;;;;23.33;100.00;56616.03;5064284;28;20268;-73
2023/12/20 04:44:10;;;;;;;75.18;31.38;;;;;;;23.57;100.00;56616.03;5082349;28;20432;-74
2023/12/20 04:46:37;;;;;;;89.97;35.70;;;;;;;23.29;100.00;56616.03;5081605;28;20261;-74
2023/12/20 04:49:03;;;;;;;86.20;35.15;;;;;;;23.25;100.00;56616.03;5080649;28;20599;-75
2023/12/20 04:51:30;;;;;;;81.85;33.47;;;;;;;-142.91;100.00;56616.03;5079564;28;20240;-73
2023/12/20 04:53:58;;;;;;;77.93;33.58;;;;;;;23.25;100.00;56616.03;5082996;28;20292;-73
2023/12/20 04:56:25;;;;;;;101.60;37.35;;;;;;;23.26;100.00;56616.03;5084570;28;20332;-75
2023/12/20 04:58:51;;;;;;;106.63;35.13;;;;;;;;;;5084033;28;20694;-74
2023/12/20 05:01:18;;;;;;;132.55;38.97;;;;;;;23.27;100.00;56616.03;5083740;28;20305;-75
2023/12/20 05:03:45;;;;;;;101.10;37.28;;;;;;;23.26;100.00;56616.03;5081479;28;20369;-74
2023/12/20 05:06:14;;;;;;;111.78;39.25;;;;;;;64.84;100.00;56616.03;5079803;28;20296;-74
2023/12/20 05:08:41;;;;;;;92.97;36.03;;;;;;;23.29;100.00;56616.03;5082106;28;20715;-75
2023/12/20 05:11:09;;;;;;;119.90;40.83;;;;;;;23.26;100.00;56616.03;5083930;28;20288;-74
2023/12/20 05:13:36;;;;;;;107.63;36.95;;;;;;;23.25;100.00;56616.03;5082115;28;20225;-75
2023/12/20 05:16:02;;;;;;;107.23;35.87;;;;;;;-142.91;100.00;56616.03;5084522;28;20229;-75
2023/12/20 05:18:29;;;;;;;103.47;35.97;;;;;;;23.25;100.00;56616.03;5088466;28;20255;-78
2023/12/20 05:20:56;;;;;;;86.07;35.83;;;;;;;-142.91;100.00;56616.03;5085642;28;20243;-73
2023/12/20 05:23:22;;;;;;;115.68;39.00;;;;;;;-142.91;100.00;56616.03;5085421;28;20244;-73
2023/12/20 05:25:49;;;;;;;92.38;36.63;;;;;;;23.25;100.00;56616.03;5085221;28;20290;-73
2023/12/20 05:28:17;;;;;;;109.25;38.58;;;;;;;23.25;100.00;56616.03;5085429;28;20304;-73
2023/12/20 05:30:43;;;;;;;98.80;36.63;;;;;;;23.25;100.00;56616.03;5087000;28;20773;-73
2023/12/20 05:33:10;;;;;;;103.45;38.53;;;;;;;-142.91;100.00;56616.03;5085256;28;20252;-73
2023/12/20 05:35:37;;;;;;;136.10;39.83;;;;;;;23.25;100.00;56616.03;5084342;28;20336;-74
2023/12/20 05:38:03;;;;;;;98.88;40.28;;;;;;;23.25;100.00;56616.03;5082935;28;20198;-74
2023/12/20 05:40:30;;;;;;;94.55;38.28;;;;;;;23.25;100.00;56616.03;5079295;28;20292;-73
2023/12/20 05:42:57;;;;;;;83.88;37.38;;;;;;;-142.91;100.00;56616.03;5078839;28;20293;-74
2023/12/20 05:45:25;;;;;;;130.25;49.33;;;;;;;23.25;100.00;56616.03;5082244;28;20298;-74
2023/12/20 05:47:51;;;;;;;142.10;54.53;;;;;;;-142.91;100.00;56616.03;5084591;28;20321;-75
2023/12/20 05:50:18;;;;;;;104.72;42.20;;;;;;;-142.91;100.00;56616.03;5084562;28;20209;-74
2023/12/20 05:52:45;;;;;;;129.63;51.15;;;;;;;23.25;100.00;56616.03;5084013;28;20209;-74
2023/12/20 05:55:11;;;;;;;169.00;59.00;;;;;;;-142.91;100.00;56616.03;5085538;28;20312;-75
2023/12/20 05:57:38;;;;;;;125.45;50.85;;;;;;;-142.91;100.00;56616.03;5085335;28;20301;-73
2023/12/20 06:00:06;;;;;;;109.40;44.15;;;;;;;-142.91;100.00;56616.03;5085248;28;20316;-73
2023/12/20 06:02:34;;;;;;;105.28;42.38;;;;;;;-142.91;100.00;56616.03;5082655;28;20219;-73
2023/12/20 06:05:01;;;;;;;123.72;44.92;;;;;;;-142.91;100.00;56616.03;5079104;28;20199;-73
2023/12/20 06:07:28;;;;;;;109.20;43.72;;;;;;;-142.91;100.00;56616.03;5082454;28;20209;-74
2023/12/20 06:09:54;;;;;;;105.15;40.55;;;;;;;;;;5084178;28;20766;-73
2023/12/20 06:12:21;;;;;;;141.80;41.55;;;;;;;23.25;100.00;56616.03;5084522;28;20220;-73
2023/12/20 06:14:48;;;;;;;111.22;40.13;;;;;;;-142.91;100.00;56616.03;5085668;28;20279;-73
2023/12/20 06:17:14;;;;;;;90.95;38.13;;;;;;;-142.91;100.00;56616.03;5083686;28;20292;-73
2023/12/20 06:19:44;;;;;;;111.85;40.63;;;;;;;-142.91;100.00;56616.03;5082345;28;20197;-76
2023/12/20 06:22:11;;;;;;;110.30;45.85;;;;;;;23.25;100.00;56616.03;5085275;28;20285;-73
2023/12/20 06:24:38;;;;;;;108.95;41.85;;;;;;;-142.91;100.00;56616.03;5084575;28;20589;-74
2023/12/20 06:27:05;;;;;;;99.72;39.20;;;;;;;-142.91;100.00;56616.03;5084666;28;20269;-75
2023/12/20 06:29:32;;;;;;;86.78;35.97;;;;;;;-142.91;100.00;56616.03;5085610;28;20634;-73
2023/12/20 06:31:59;;;;;;;86.43;37.42;;;;;;;23.25;100.00;56616.03;5076933;28;20233;-73
2023/12/20 06:34:25;;;;;;;87.28;35.35;;;;;;;23.25;100.00;56616.03;5078676;28;20341;-74
2023/12/20 06:36:54;;;;;;;89.57;34.92;;;;;;;-142.91;100.00;56616.03;5074953;28;20297;-75
2023/12/20 06:39:20;;;;;;;87.20;33.83;;;;;;;23.25;100.00;56616.03;5083266;28;20294;-75
2023/12/20 06:41:47;;;;;;;92.53;35.72;;;;;;;-142.91;100.00;56616.03;5084643;28;20774;-75
2023/12/20 06:44:14;;;;;;;86.00;35.08;;;;;;;23.25;100.00;56616.03;5086023;28;20259;-75
2023/12/20 06:46:40;;;;;;;78.28;33.08;;;;;;;-142.91;100.00;56616.03;5084197;28;20305;-76
2023/12/20 06:49:07;;;;;;;92.43;34.88;;;;;;;;;;5078219;28;20233;-74
2023/12/20 06:51:33;;;;;;;84.53;34.83;;;;;;;23.26;100.00;56616.03;5082936;28;20313;-76
2023/12/20 06:54:02;;;;;;;100.50;34.47;;;;;;;23.25;100.00;56616.03;5082965;28;20734;-74
2023/12/20 06:56:29;;;;;;;74.68;33.10;;;;;;;23.25;100.00;56616.03;5081645;28;20240;-74
2023/12/20 06:58:55;;;;;;;106.82;32.45;;;;;;;23.26;100.00;56616.03;5080325;28;20206;-74
2023/12/20 07:01:22;;;;;;;79.50;33.08;;;;;;;23.25;100.00;56616.03;5082832;28;20320;-75
2023/12/20 07:03:49;;;;;;;94.00;33.65;;;;;;;23.33;100.00;56616.03;5081499;28;20591;-75
2023/12/20 07:06:16;;;;;;;92.60;35.15;;;;;;;23.25;100.00;56616.03;5082733;28;20759;-74
2023/12/20 07:08:43;;;;;;;90.25;33.30;;;;;;;23.25;100.00;56616.03;5082446;28;20686;-75
2023/12/20 07:11:11;;;;;;;86.30;31.25;;;;;;;23.25;100.00;56616.03;5082101;28;20308;-76
2023/12/20 07:13:38;;;;;;;75.70;32.45;;;;;;;23.27;100.00;56616.03;5083690;28;20659;-73
2023/12/20 07:16:05;;;;;;;75.28;30.05;;;;;;;-142.91;100.00;56616.03;5076977;28;20796;-73
2023/12/20 07:18:32;;;;;;;73.90;32.25;;;;;;;23.26;100.00;56616.03;5078835;28;20590;-73
2023/12/20 07:20:58;;;;;;;78.72;33.25;;;;;;;23.25;100.00;56616.03;5079836;28;20208;-75
2023/12/20 07:23:26;;;;;;;84.60;33.42;;;;;;;23.25;100.00;56616.03;5082385;28;20759;-74
2023/12/20 07:25:53;;;;;;;77.03;34.08;;;;;;;23.25;100.00;56616.03;5080573;28;20221;-74
2023/12/20 07:28:21;;;;;;;80.07;32.50;;;;;;;23.25;100.00;56616.03;5081396;28;20582;-74
2023/12/20 07:30:47;;;;;;;79.45;33.00;;;;;;;23.25;100.00;56616.03;5077914;28;20288;-74
2023/12/20 07:33:14;;;;;;;80.00;31.05;;;;;;;23.26;100.00;56616.03;5076470;28;20308;-74
2023/12/20 07:35:40;;;;;;;86.05;33.13;;;;;;;23.25;100.00;56616.03;5072535;28;20672;-74
2023/12/20 07:38:07;;;;;;;77.40;33.85;;;;;;;23.25;100.00;56616.03;5073687;28;20206;-74
2023/12/20 07:40:34;;;;;;;88.07;35.70;;;;;;;;;;5079482;28;20296;-74
2023/12/20 07:43:00;;;;;;;86.30;37.67;;;;;;;23.26;100.00;56616.03;5081836;28;20221;-74
2023/12/20 07:45:28;;;;;;;95.13;38.10;;;;;;;23.29;100.00;56616.03;5081860;28;21236;-74
2023/12/20 07:47:55;;;;;;;66.25;31.67;;;;;;;23.25;100.00;56616.03;5079093;28;20237;-75
2023/12/20 07:50:22;;;;;;;80.30;31.02;;;;;;;-142.91;100.00;56616.03;5081452;28;20207;-75
2023/12/20 07:52:48;;;;;;;78.50;33.88;;;;;;;;;;5072106;28;20806;-74
2023/12/20 07:55:15;;;;;;;95.78;36.22;;;;;;;23.25;100.00;56616.03;5083377;28;20221;-73
2023/12/20 07:57:41;;;;;;;94.60;37.60;;;;;;;23.26;100.00;56616.03;5081512;28;20229;-76
2023/12/20 08:00:09;;;;;;;94.85;37.47;;;;;;;23.90;100.00;56616.03;5079265;28;20287;-74
2023/12/20 08:02:38;;;;;;;116.15;42.17;;;;;;;23.25;100.00;56616.03;5076607;28;20608;-74
2023/12/20 08:05:05;;;;;;;108.97;40.63;;;;;;;-142.91;100.00;56616.03;5079419;28;20616;-76
2023/12/20 08:07:31;;;;;;;116.53;43.55;;;;;;;23.26;100.00;56616.03;5077355;28;20240;-74
2023/12/20 08:09:58;;;;;;;117.35;44.20;;;;;;;23.26;100.00;56616.03;5071677;28;21159;-73
2023/12/20 08:12:27;;;;;;;123.40;43.35;;;;;;;23.26;100.00;56616.03;5078566;28;20205;-74
2023/12/20 08:14:54;;;;;;;112.07;44.58;;;;;;;23.26;100.00;56616.03;5069856;28;20310;-74
2023/12/20 08:17:20;;;;;;;128.93;47.53;;;;;;;23.25;100.00;56616.03;5080079;28;20284;-74
2023/12/20 08:19:48;;;;;;;113.93;44.20;;;;;;;23.33;100.00;56616.03;5076393;28;20669;-74
2023/12/20 08:22:15;;;;;;;120.45;42.83;;;;;;;23.27;100.00;56616.03;5081322;28;20754;-74
2023/12/20 08:24:42;;;;;;;113.20;45.17;;;;;;;23.25;100.00;56616.03;5081674;28;20284;-74
2023/12/20 08:27:09;;;;;;;111.43;41.22;;;;;;;23.25;100.00;56616.03;5082314;28;20325;-75
2023/12/20 08:29:36;;;;;;;104.88;42.40;;;;;;;-142.91;100.00;56616.03;5084166;28;20212;-74
2023/12/20 08:32:03;;;;;;;123.03;45.83;;;;;;;-142.91;100.00;56616.03;5082364;28;20253;-74
2023/12/20 08:34:29;;;;;;;101.55;41.78;;;;;;;23.25;100.00;56616.03;5083835;28;20297;-74
2023/12/20 08:36:57;;;;;;;112.47;43.13;;;;;;;-142.91;100.00;56616.03;5083740;28;21075;-75
2023/12/20 08:39:24;;;;;;;102.50;40.70;;;;;;;23.25;100.00;56616.03;5082850;28;20288;-74
2023/12/20 08:41:52;;;;;;;113.22;44.20;;;;;;;-142.91;100.00;56616.03;5081672;28;20208;-77
2023/12/20 08:44:18;;;;;;;136.13;51.05;;;;;;;-142.91;100.00;56616.03;5056430;28;20238;-74
2023/12/20 08:46:45;;;;;;;134.07;50.70;;;;;;;;;;5061404;28;20198;-74
2023/12/20 08:49:11;;;;;;;143.75;52.17;;;;;;;23.26;100.00;56616.03;5060104;28;20217;-74
2023/12/20 08:51:40;;;;;;;138.35;49.30;;;;;;;;;;5060881;28;21035;-75
2023/12/20 08:54:08;;;;;;;143.57;51.60;;;;;;;;;;5060218;28;20237;-75
2023/12/20 08:56:35;;;;;;;121.13;52.75;;;;;;;;;;5059218;28;20669;-76
2023/12/20 08:59:01;;;;;;;140.20;54.08;;;;;;;;;;5058747;28;20658;-75
2023/12/20 09:01:27;;;;;;;142.88;54.65;;;;;;;;;;5058576;28;20301;-75
2023/12/20 09:03:54;;;;;;;132.18;52.67;;;;;;;23.25;100.00;56616.03;5057641;28;20238;-75
2023/12/20 09:06:21;;;;;;;142.07;51.45;;;;;;;;;;5058674;28;20739;-76
2023/12/20 09:08:47;;;;;;;147.23;54.22;;;;;;;23.25;100.00;56616.03;5053597;28;20210;-74
2023/12/20 09:11:17;;;;;;;130.90;55.33;;;;;;;-142.91;100.00;56616.03;5059325;28;20754;-75
2023/12/20 09:13:44;;;;;;;152.40;58.30;;;;;;;;;;5061637;28;20272;-73
2023/12/20 09:16:11;;;;;;;155.27;57.75;;;;;;;23.25;100.00;56616.03;5060842;28;20232;-75
2023/12/20 09:18:37;;;;;;;155.65;59.58;;;;;;;23.25;100.00;56616.03;5061897;28;20325;-75
2023/12/20 09:21:04;;;;;;;145.85;58.50;;;;;;;-142.91;100.00;56616.03;5061438;28;20300;-75
2023/12/20 09:23:30;;;;;;;150.95;57.42;;;;;;;23.26;100.00;56616.03;5057772;28;20338;-77
2023/12/20 09:25:57;;;;;;;132.43;54.33;;;;;;;23.25;100.00;56616.03;5061549;28;20289;-76
2023/12/20 09:28:25;;;;;;;133.63;52.20;;;;;;;23.25;100.00;56616.03;5061758;28;20289;-77
2023/12/20 09:30:51;;;;;;;164.40;59.65;;;;;;;;;;5061048;28;20209;-76
2023/12/20 09:33:18;;;;;;;152.35;58.45;;;;;;;;;;5059387;28;20683;-76
2023/12/20 09:35:45;;;;;;;149.43;62.13;;;;;;;23.25;100.00;56616.03;5057628;28;20234;-75
2023/12/20 09:38:12;;;;;;;182.38;67.20;;;;;;;;;;5059958;28;20229;-75
2023/12/20 09:40:42;;;;;;;155.38;60.80;;;;;;;;;;5058940;28;20567;-75
2023/12/20 09:43:12;;;;;;;149.27;57.63;;;;;;;23.25;100.00;56616.03;5067801;28;20261;-75
2023/12/20 09:45:41;;;;;;;144.43;58.83;;;;;;;-142.91;100.00;56616.03;5082110;28;20600;-74
2023/12/20 09:48:08;;;;;;;150.75;58.67;;;;;;;;;;5080354;28;20213;-74
2023/12/20 09:50:35;;;;;;;145.07;58.35;;;;;;;;;;5077667;28;20229;-74
2023/12/20 09:53:04;;;;;;;150.52;56.78;;;;;;;23.41;0.00;56682.84;5079560;28;20220;-74
2023/12/20 09:55:31;;;;;;;146.15;56.67;;;;;;;;;;5075882;28;20225;-74
2023/12/20 09:57:57;;;;;;;141.75;56.67;;;;;;;;;;5076670;28;20204;-76
2023/12/20 10:00:24;;;;;;;159.30;60.55;;;;;;;-142.91;100.00;56616.03;5081611;28;20308;-74
2023/12/20 10:02:58;;;;;;;149.20;57.70;;;;;;;-142.91;100.00;56616.03;5078888;28;20293;-74
2023/12/20 10:05:27;;;;;;;151.55;58.03;;;;;;;;;;5067567;28;20274;-74
2023/12/20 10:07:53;;;;;;;146.50;59.50;;;;;;;;;;5084732;28;20289;-73
2023/12/20 10:10:20;;;;;;;159.15;61.13;;;;;;;-142.91;100.00;56616.03;5084654;28;20644;-74
2023/12/20 10:13:01;;;;;;;155.45;63.85;;;;;;;;;;5080745;28;20681;-75
2023/12/20 10:15:28;;;;;;;154.23;60.65;;;;;;;;;;5077614;28;20320;-74
2023/12/20 10:17:56;;;;;;;159.98;63.17;;;;;;;;;;5079778;28;20234;-75
2023/12/20 10:20:22;;;;;;;181.25;66.82;;;;;;;;;;5084269;28;20293;-75
2023/12/20 10:22:49;;;;;;;176.40;69.10;;;;;;;;;;5082353;28;20292;-75
2023/12/20 10:25:15;;;;;;;169.38;68.57;;;;;;;;;;5084978;28;20292;-74
2023/12/20 10:27:42;;;;;;;164.95;65.63;;;;;;;;;;5084839;28;20211;-75
2023/12/20 10:30:09;;;;;;;164.00;65.63;;;;;;;;;;5084703;28;20285;-75
2023/12/20 10:32:36;;;;;;;164.75;65.68;;;;;;;-142.91;100.00;56616.03;5080773;28;20309;-75
2023/12/20 10:35:04;;;;;;;156.95;64.05;;;;;;;;;;5064783;28;21639;-74
2023/12/20 10:37:31;;;;;;;163.65;63.72;;;;;;;-142.91;100.00;56616.03;5079024;28;21040;-76
2023/12/20 10:40:00;;;;;;;146.07;60.60;;;;;;;-142.91;100.00;56616.03;5074254;28;20252;-76
2023/12/20 10:42:27;;;;;;;167.75;70.40;;;;;;;;;;5081722;28;20887;-76
2023/12/20 10:44:54;;;;;;;145.77;65.97;;;;;;;;;;5080532;28;20225;-75
2023/12/20 10:47:20;;;;;;;163.15;65.50;;;;;;;;;;5070093;28;21543;-74
2023/12/20 10:49:48;;;;;;;160.55;69.10;;;;;;;-142.91;100.00;56616.03;5072124;28;20705;-74
2023/12/20 10:52:17;;;;;;;172.27;67.38;;;;;;;;;;5078058;28;20250;-73
2023/12/20 10:54:46;;;;;;;164.75;70.70;;;;;;;;;;5084154;28;20287;-73
2023/12/20 10:57:12;;;;;;;162.15;68.68;;;;;;;;;;5081578;28;20221;-74
2023/12/20 10:59:40;;;;;;;152.20;65.55;;;;;;;;;;5077283;28;20284;-75
2023/12/20 11:02:07;;;;;;;164.30;67.47;;;;;;;-142.91;100.00;56616.03;5076154;28;20651;-74
2023/12/20 11:04:37;;;;;;;154.18;65.72;;;;;;;;;;5077225;28;20281;-76
2023/12/20 11:07:08;;;;;;;163.30;69.13;;;;;;;;;;5078006;28;20289;-75
2023/12/20 11:09:37;;;;;;;177.30;70.45;;;;;;;;;;5081415;28;20337;-75
2023/12/20 11:12:06;;;;;;;174.65;74.57;;;;;;;;;;5082599;28;20288;-75
2023/12/20 11:14:35;;;;;;;177.02;74.25;;;;;;;;;;5084438;28;20767;-76
2023/12/20 11:17:08;;;;;;;164.85;70.13;;;;;;;;;;5083008;28;20229;-76
2023/12/20 11:19:37;;;;;;;159.32;71.60;;;;;;;-142.91;100.00;56616.03;5077094;28;20764;-76
2023/12/20 11:22:05;;;;;;;155.80;66.22;;;;;;;-142.91;100.00;56616.03;5081982;28;20197;-75
2023/12/20 11:24:32;;;;;;;182.00;70.18;;;;;;;;;;5084437;28;20594;-78
2023/12/20 11:27:00;;;;;;;170.57;72.70;;;;;;;;;;5083613;28;20692;-75
2023/12/20 11:29:34;;;;;;;178.00;75.45;;;;;;;;;;5083562;28;20285;-74
2023/12/20 11:32:02;;;;;;;187.10;73.75;;;;;;;;;;5078713;28;20253;-74
2023/12/20 11:34:32;;;;;;;184.20;79.13;;;;;;;-142.91;100.00;56616.03;5080931;28;20224;-73